Time;durP1;ratioP1;P1;durP2;ratioP2;P2;SDS_P1;SDS_P2;PMS_P1;PMS_P2;Temp;Humidity;BMP_temperature;BMP_pressure;BME280_temperature;BME280_humidity;BME280_pressure;Samples;Min_cycle;Max_cycle;Signal;HPM_P1;HPM_P2
2022/10/31 06:03:49;;;;;;;20.27;9.55;;;9.30;99.90;;;;;;4956057;29;20058;-75
2022/10/31 06:06:16;;;;;;;16.52;9.63;;;9.40;99.90;;;;;;4955621;29;20032;-75
2022/10/31 06:08:41;;;;;;;20.90;9.98;;;9.30;99.90;;;;;;4951064;29;20054;-75
2022/10/31 06:11:13;;;;;;;23.52;11.70;;;9.30;99.90;;;;;;4939382;29;20051;-75
2022/10/31 06:13:58;;;;;;;21.05;10.85;;;9.40;99.90;;;;;;4945132;29;20079;-74
2022/10/31 06:16:31;;;;;;;25.58;10.82;;;9.30;99.90;;;;;;4928889;29;20036;-74
2022/10/31 06:19:06;;;;;;;23.50;10.10;;;9.40;99.90;;;;;;4934050;29;20039;-73
2022/10/31 06:21:33;;;;;;;23.00;10.13;;;9.40;99.90;;;;;;4939604;29;20031;-75
2022/10/31 06:24:00;;;;;;;23.85;10.15;;;9.40;99.90;;;;;;4963023;28;20035;-74
2022/10/31 06:26:46;;;;;;;33.72;11.30;;;9.50;99.90;;;;;;4950313;29;20054;-73
2022/10/31 06:29:12;;;;;;;25.30;10.40;;;9.50;99.90;;;;;;4928435;29;20103;-75
2022/10/31 06:31:54;;;;;;;19.20;9.57;;;9.60;99.90;;;;;;4928294;29;20028;-73
2022/10/31 06:34:20;;;;;;;17.05;9.35;;;9.70;99.90;;;;;;4945470;29;20030;-74
2022/10/31 06:36:47;;;;;;;17.13;9.90;;;9.80;99.90;;;;;;4957862;28;20023;-74
2022/10/31 06:39:13;;;;;;;17.90;9.68;;;9.80;99.90;;;;;;4944294;29;20027;-74
2022/10/31 06:41:39;;;;;;;19.45;10.43;;;9.90;99.90;;;;;;4944178;29;20071;-74
2022/10/31 06:44:06;;;;;;;17.60;10.15;;;9.90;99.90;;;;;;4927885;29;20027;-72
2022/10/31 06:46:50;;;;;;;17.35;8.60;;;10.00;99.90;;;;;;4944465;29;20269;-73
2022/10/31 06:49:36;;;;;;;17.20;8.65;;;10.10;99.90;;;;;;4944078;29;20142;-72
2022/10/31 06:52:07;;;;;;;19.35;8.10;;;10.20;99.90;;;;;;4944064;29;20099;-73
2022/10/31 06:54:33;;;;;;;19.67;8.38;;;10.30;99.90;;;;;;4961667;29;20034;-73
2022/10/31 06:56:59;;;;;;;13.88;8.25;;;10.40;99.90;;;;;;4946246;29;20023;-73
2022/10/31 06:59:26;;;;;;;15.88;8.27;;;10.50;99.90;;;;;;4960554;28;20340;-74
2022/10/31 07:02:12;;;;;;;11.98;6.72;;;10.60;99.90;;;;;;4946370;28;20036;-73
2022/10/31 07:04:41;;;;;;;14.57;6.70;;;10.60;99.90;;;;;;4928424;29;20051;-72
2022/10/31 07:07:07;;;;;;;12.02;6.60;;;10.60;99.90;;;;;;4942560;29;20043;-73
2022/10/31 07:09:34;;;;;;;10.63;6.90;;;10.70;99.90;;;;;;4946582;29;20042;-71
2022/10/31 07:12:03;;;;;;;12.18;7.35;;;10.70;99.90;;;;;;4943443;29;20384;-77
2022/10/31 07:14:30;;;;;;;11.27;6.70;;;10.80;99.90;;;;;;4927662;29;20036;-73
2022/10/31 07:16:56;;;;;;;8.93;5.90;;;10.80;99.90;;;;;;4944195;29;20058;-72
2022/10/31 07:19:28;;;;;;;12.77;7.03;;;10.90;99.90;;;;;;4944209;29;20103;-72
2022/10/31 07:21:53;;;;;;;12.40;6.80;;;10.90;99.90;;;;;;4945080;29;20072;-72
2022/10/31 07:24:19;;;;;;;12.05;6.90;;;11.00;99.90;;;;;;4944259;29;20034;-73
2022/10/31 07:27:20;;;;;;;13.18;7.10;;;11.10;99.90;;;;;;4944878;29;20055;-72
2022/10/31 07:29:47;;;;;;;9.00;5.78;;;11.20;99.90;;;;;;4943254;29;20035;-73
2022/10/31 07:32:14;;;;;;;13.18;5.88;;;11.20;99.90;;;;;;4943529;29;20032;-73
2022/10/31 07:34:46;;;;;;;11.75;6.20;;;11.30;99.90;;;;;;4943162;29;20028;-73
2022/10/31 07:37:18;;;;;;;11.60;5.55;;;11.30;99.90;;;;;;4943726;29;20090;-73
2022/10/31 07:39:44;;;;;;;13.60;5.60;;;11.40;99.90;;;;;;4927362;29;20199;-74
2022/10/31 07:42:10;;;;;;;10.65;5.45;;;11.50;99.90;;;;;;4943046;29;20067;-72
2022/10/31 07:44:37;;;;;;;10.73;5.20;;;11.60;99.90;;;;;;4943367;29;20305;-73
2022/10/31 07:47:21;;;;;;;11.35;5.25;;;11.60;99.90;;;;;;4952457;28;20042;-73
2022/10/31 07:50:28;;;;;;;9.60;5.18;;;11.70;99.90;;;;;;4898212;29;20144;-71
2022/10/31 07:53:14;;;;;;;9.20;5.03;;;11.70;99.90;;;;;;4903262;29;20277;-72
2022/10/31 07:56:06;;;;;;;11.98;5.03;;;11.80;99.90;;;;;;4933375;28;20206;-72
2022/10/31 07:58:33;;;;;;;11.68;5.53;;;11.90;99.90;;;;;;4961071;29;20376;-72
2022/10/31 08:00:58;;;;;;;12.02;5.65;;;12.00;99.90;;;;;;4973385;28;20027;-71
2022/10/31 08:03:33;;;;;;;9.88;5.65;;;12.10;99.90;;;;;;4958742;29;20328;-74
2022/10/31 08:06:01;;;;;;;11.48;5.63;;;12.10;99.90;;;;;;4961861;29;20039;-72
2022/10/31 08:08:39;;;;;;;15.27;5.85;;;12.10;99.90;;;;;;4962595;28;20321;-72
2022/10/31 08:11:07;;;;;;;10.93;5.10;;;12.20;99.90;;;;;;4960776;29;20352;-71
2022/10/31 08:13:33;;;;;;;10.02;4.78;;;12.30;99.90;;;;;;4961149;28;20062;-71
2022/10/31 08:16:03;;;;;;;10.48;4.97;;;12.50;99.90;;;;;;4960433;29;20023;-72
2022/10/31 08:18:30;;;;;;;8.30;4.20;;;12.60;99.90;;;;;;4961021;28;20039;-72
2022/10/31 08:20:57;;;;;;;8.90;4.55;;;12.60;99.90;;;;;;4963473;29;20027;-74
2022/10/31 08:23:22;;;;;;;7.60;4.45;;;12.60;99.90;;;;;;4965677;29;20270;-71
2022/10/31 08:25:48;;;;;;;10.02;4.90;;;12.70;99.90;;;;;;4964107;29;20106;-72
2022/10/31 08:28:15;;;;;;;9.98;4.53;;;12.80;99.90;;;;;;4965560;29;20050;-71
2022/10/31 08:30:43;;;;;;;11.00;5.38;;;12.90;99.90;;;;;;4964700;29;20062;-72
2022/10/31 08:33:28;;;;;;;11.48;4.72;;;13.00;99.90;;;;;;4964629;29;20074;-73
2022/10/31 08:36:13;;;;;;;11.43;4.47;;;13.10;99.90;;;;;;4965396;29;20351;-71
2022/10/31 08:38:53;;;;;;;9.55;4.50;;;13.20;99.90;;;;;;4964030;29;20027;-71
2022/10/31 08:41:18;;;;;;;10.02;4.38;;;13.30;99.90;;;;;;4965600;29;20219;-71
2022/10/31 08:43:45;;;;;;;11.55;4.90;;;13.40;99.90;;;;;;4963943;29;20070;-71
2022/10/31 08:46:11;;;;;;;11.25;4.88;;;13.40;99.90;;;;;;4963813;29;20421;-72
2022/10/31 08:48:39;;;;;;;13.33;6.37;;;13.50;99.90;;;;;;4980172;28;20105;-72
2022/10/31 08:51:06;;;;;;;12.15;5.50;;;13.60;99.90;;;;;;4963566;28;20455;-72
2022/10/31 08:53:32;;;;;;;12.10;5.07;;;13.60;99.90;;;;;;4958920;28;20040;-72
2022/10/31 08:56:19;;;;;;;9.07;5.00;;;13.60;99.90;;;;;;4959852;29;20146;-70
2022/10/31 08:58:45;;;;;;;11.70;5.15;;;13.60;99.90;;;;;;4964104;28;20027;-71
2022/10/31 09:01:11;;;;;;;10.50;4.72;;;13.70;99.90;;;;;;4963755;29;20186;-72
2022/10/31 09:03:37;;;;;;;11.30;4.82;;;13.80;99.90;;;;;;4947576;29;20055;-72
2022/10/31 09:06:08;;;;;;;9.23;4.65;;;14.00;99.90;;;;;;4963332;29;20067;-70
2022/10/31 09:08:34;;;;;;;10.93;4.88;;;14.10;99.90;;;;;;4965020;28;20031;-72
2022/10/31 09:11:01;;;;;;;9.90;4.60;;;14.10;99.90;;;;;;4963271;29;20035;-71
2022/10/31 09:13:52;;;;;;;13.93;4.85;;;14.30;99.90;;;;;;4945604;29;20102;-73
2022/10/31 09:16:36;;;;;;;7.97;4.65;;;14.40;99.90;;;;;;4962139;28;20090;-73
2022/10/31 09:19:04;;;;;;;10.47;5.00;;;14.60;99.90;;;;;;4944174;29;20032;-72
2022/10/31 09:21:30;;;;;;;10.77;4.60;;;14.70;99.90;;;;;;4944281;29;20054;-74
2022/10/31 09:23:57;;;;;;;10.98;4.22;;;14.70;99.90;;;;;;4944025;29;20070;-73
2022/10/31 09:26:24;;;;;;;8.77;4.55;;;14.80;99.90;;;;;;4944280;29;20266;-73
2022/10/31 09:29:04;;;;;;;9.85;4.13;;;14.90;99.90;;;;;;4944018;29;20557;-75
2022/10/31 09:31:31;;;;;;;11.27;4.40;;;15.00;99.90;;;;;;4943843;29;20305;-76
2022/10/31 09:34:19;;;;;;;7.75;4.13;;;15.10;99.90;;;;;;4940290;29;20249;-73
2022/10/31 09:37:00;;;;;;;10.55;4.50;;;15.20;99.90;;;;;;4943780;29;20046;-73
2022/10/31 09:39:26;;;;;;;7.75;4.10;;;15.30;99.90;;;;;;4944235;29;20040;-73
2022/10/31 09:42:29;;;;;;;12.40;4.85;;;15.30;99.90;;;;;;4943629;29;20120;-72
2022/10/31 09:45:23;;;;;;;10.25;4.10;;;15.40;99.90;;;;;;4943709;29;20036;-75
2022/10/31 09:48:19;;;;;;;10.13;4.20;;;15.50;99.90;;;;;;4932238;29;20079;-73
2022/10/31 09:51:18;;;;;;;13.05;4.60;;;15.40;99.90;;;;;;4905822;29;20368;-75
2022/10/31 09:54:32;;;;;;;10.32;4.93;;;15.50;99.90;;;;;;4924935;29;20217;-73
2022/10/31 09:57:02;;;;;;;9.05;4.32;;;15.70;99.90;;;;;;4916342;29;20035;-74
2022/10/31 09:59:35;;;;;;;7.95;4.40;;;15.80;99.90;;;;;;4944054;29;20038;-73
2022/10/31 10:02:17;;;;;;;8.73;4.57;;;16.00;99.90;;;;;;4943615;29;20062;-73
2022/10/31 10:04:57;;;;;;;8.63;4.68;;;16.00;99.90;;;;;;4945070;29;20134;-73
2022/10/31 10:07:42;;;;;;;12.75;5.22;;;16.20;99.90;;;;;;4943689;29;20067;-76
2022/10/31 10:10:18;;;;;;;12.07;4.93;;;16.20;99.90;;;;;;4944167;29;20115;-75
2022/10/31 10:13:34;;;;;;;12.80;5.28;;;16.40;99.90;;;;;;4944569;29;20038;-73
2022/10/31 10:16:07;;;;;;;;;;;16.60;99.90;;;;;;4891457;29;20107;-73
2022/10/31 10:19:05;;;;;;;11.20;5.22;;;16.80;99.90;;;;;;4926204;29;19954;-75
2022/10/31 10:21:53;;;;;;;11.82;5.45;;;16.90;99.90;;;;;;4942225;29;20059;-72
2022/10/31 10:24:25;;;;;;;14.40;6.13;;;17.10;99.90;;;;;;4944773;29;20055;-73
2022/10/31 10:26:56;;;;;;;8.88;4.80;;;17.30;99.90;;;;;;4939827;29;20032;-73
2022/10/31 10:29:34;;;;;;;11.73;5.40;;;17.40;99.90;;;;;;4926682;29;20381;-74
2022/10/31 10:32:05;;;;;;;11.52;5.38;;;17.50;99.90;;;;;;4927035;29;20060;-73
2022/10/31 10:34:41;;;;;;;10.98;4.45;;;17.70;99.90;;;;;;4924983;29;20036;-73
2022/10/31 10:37:22;;;;;;;9.85;4.40;;;17.80;99.90;;;;;;4942548;29;20051;-73
2022/10/31 10:39:53;;;;;;;10.70;4.70;;;17.80;99.90;;;;;;4942299;29;20484;-73
2022/10/31 10:48:14;;;;;;;9.75;4.57;;;18.20;99.90;;;;;;4941921;29;20043;-75
2022/10/31 10:50:46;;;;;;;9.25;5.00;;;18.10;99.90;;;;;;4942623;29;20225;-74
2022/10/31 10:53:35;;;;;;;10.00;4.82;;;18.10;99.90;;;;;;4925998;29;20258;-72
2022/10/31 10:56:10;;;;;;;12.40;5.30;;;18.30;99.90;;;;;;4925666;29;20291;-74
2022/10/31 10:58:37;;;;;;;12.00;4.90;;;18.40;99.90;;;;;;4942407;29;20377;-75
2022/10/31 11:01:11;;;;;;;13.13;5.47;;;18.40;99.90;;;;;;4941527;29;20031;-75
2022/10/31 11:03:36;;;;;;;10.75;4.80;;;18.40;99.90;;;;;;4942085;29;20270;-74
2022/10/31 11:06:02;;;;;;;13.07;5.45;;;18.50;99.90;;;;;;4941636;29;20040;-74
2022/10/31 11:08:30;;;;;;;12.15;5.57;;;18.60;99.90;;;;;;4930904;29;20079;-74
2022/10/31 11:11:22;;;;;;;10.13;5.75;;;18.40;99.90;;;;;;4940378;29;20214;-72
2022/10/31 11:13:51;;;;;;;11.02;5.05;;;18.50;99.90;;;;;;4931239;29;20107;-73
2022/10/31 11:16:25;;;;;;;;;;;18.70;99.90;;;;;;4944340;29;20430;-74
2022/10/31 11:18:52;;;;;;;15.55;5.57;;;18.70;99.90;;;;;;4943681;29;19978;-73
2022/10/31 11:21:25;;;;;;;13.45;6.00;;;18.90;99.90;;;;;;4943468;29;20240;-74
2022/10/31 11:24:02;;;;;;;13.55;5.78;;;18.90;99.90;;;;;;4943880;29;20028;-72
2022/10/31 11:26:28;;;;;;;10.93;5.40;;;19.20;99.90;;;;;;4941519;29;20415;-73
2022/10/31 11:28:58;;;;;;;12.30;5.45;;;19.80;99.90;;;;;;4933044;29;20095;-71
2022/10/31 11:31:27;;;;;;;13.32;5.65;;;20.30;99.90;;;;;;4943870;29;20040;-74
2022/10/31 11:34:06;;;;;;;15.82;6.00;;;20.70;99.90;;;;;;4944288;29;20086;-75
2022/10/31 11:36:35;;;;;;;11.75;5.55;;;20.70;99.80;;;;;;4943888;29;20031;-75
2022/10/31 11:39:04;;;;;;;13.30;5.80;;;20.90;99.90;;;;;;4943361;29;20143;-74
2022/10/31 11:41:34;;;;;;;10.48;5.32;;;21.20;99.60;;;;;;4941377;29;20024;-74
2022/10/31 11:44:04;;;;;;;9.82;5.13;;;21.70;98.90;;;;;;4924344;29;20039;-74
2022/10/31 11:46:35;;;;;;;10.68;4.45;;;21.80;97.70;;;;;;4927105;29;20027;-75
2022/10/31 11:49:02;;;;;;;9.25;4.63;;;22.00;97.40;;;;;;4941746;29;20049;-74
2022/10/31 11:51:34;;;;;;;12.50;5.22;;;22.20;97.40;;;;;;4943253;29;20028;-75
2022/10/31 11:54:04;;;;;;;9.75;4.30;;;22.30;96.40;;;;;;4925880;29;20032;-75
2022/10/31 11:56:40;;;;;;;12.60;4.70;;;22.40;96.90;;;;;;4942778;29;20038;-75
2022/10/31 11:59:19;;;;;;;10.63;5.05;;;22.70;96.20;;;;;;4947170;29;20062;-75
2022/10/31 12:01:49;;;;;;;;;;;22.70;96.00;;;;;;4949890;29;20067;-73
2022/10/31 12:04:16;;;;;;;13.65;4.85;;;22.60;95.50;;;;;;4966079;29;19906;-73
2022/10/31 12:06:47;;;;;;;14.15;6.10;;;22.50;95.70;;;;;;4966003;29;20047;-73
2022/10/31 12:09:32;;;;;;;20.52;6.18;;;22.30;95.70;;;;;;4948770;29;20043;-73
2022/10/31 12:12:03;;;;;;;12.10;6.25;;;22.20;96.00;;;;;;4966296;29;20102;-73
2022/10/31 12:14:58;;;;;;;11.98;5.88;;;21.80;96.10;;;;;;4966086;29;20031;-73
2022/10/31 12:17:48;;;;;;;12.80;5.72;;;21.50;96.60;;;;;;4935535;29;20163;-73
2022/10/31 12:20:51;;;;;;;14.98;6.38;;;21.90;96.70;;;;;;4946643;29;20106;-73
2022/10/31 12:23:33;;;;;;;9.48;5.07;;;22.20;96.20;;;;;;4961198;29;20050;-73
2022/10/31 12:26:08;;;;;;;12.63;5.28;;;23.10;95.40;;;;;;4965881;28;20100;-74
2022/10/31 12:28:55;;;;;;;11.77;6.22;;;23.90;94.00;;;;;;4964958;28;20216;-74
2022/10/31 12:31:26;;;;;;;9.32;5.18;;;24.20;93.00;;;;;;4965698;29;20078;-74
2022/10/31 12:33:52;;;;;;;9.75;4.65;;;24.40;92.50;;;;;;4964676;28;20380;-74
2022/10/31 12:36:49;;;;;;;14.38;5.40;;;24.20;92.00;;;;;;4946156;29;20059;-74
2022/10/31 12:39:25;;;;;;;13.13;5.53;;;23.90;92.10;;;;;;4946441;29;20043;-73
2022/10/31 12:41:59;;;;;;;12.57;5.18;;;23.50;92.50;;;;;;4946660;29;20028;-74
2022/10/31 12:44:39;;;;;;;13.68;5.30;;;23.00;93.30;;;;;;4941801;29;20230;-75
2022/10/31 12:47:22;;;;;;;13.77;4.97;;;22.60;93.40;;;;;;4927607;29;20044;-77
2022/10/31 12:49:54;;;;;;;12.43;5.20;;;22.20;94.40;;;;;;4958544;29;20050;-75
2022/10/31 12:52:31;;;;;;;16.00;6.22;;;21.90;94.40;;;;;;4946824;29;20032;-75
2022/10/31 12:55:14;;;;;;;14.95;6.35;;;21.50;95.10;;;;;;4947196;29;20042;-74
2022/10/31 12:57:48;;;;;;;11.05;5.30;;;21.30;96.30;;;;;;4936907;29;20131;-73
2022/10/31 13:00:19;;;;;;;12.65;5.75;;;21.10;95.80;;;;;;4946847;29;20242;-74
2022/10/31 13:02:53;;;;;;;10.80;5.93;;;20.80;96.50;;;;;;4945918;29;20043;-73
2022/10/31 13:05:40;;;;;;;11.18;6.07;;;20.70;96.80;;;;;;4931466;29;20051;-73
2022/10/31 13:08:28;;;;;;;12.27;5.47;;;20.50;97.00;;;;;;4964982;29;20110;-73
2022/10/31 13:11:07;;;;;;;11.75;5.25;;;20.40;97.30;;;;;;4958872;29;20090;-72
2022/10/31 13:13:48;;;;;;;13.25;5.80;;;20.40;97.80;;;;;;4965225;29;20054;-73
2022/10/31 13:16:26;;;;;;;13.07;5.82;;;20.20;97.70;;;;;;4947604;29;20023;-79
2022/10/31 13:19:05;;;;;;;14.77;6.90;;;20.30;98.70;;;;;;4965366;29;20179;-75
2022/10/31 13:21:35;;;;;;;15.32;6.22;;;20.20;99.30;;;;;;4964733;29;20443;-75
2022/10/31 13:24:07;;;;;;;12.40;5.07;;;20.30;98.30;;;;;;4965400;29;20143;-75
2022/10/31 13:26:41;;;;;;;12.93;5.68;;;20.30;97.80;;;;;;4956675;29;20049;-75
2022/10/31 13:29:28;;;;;;;11.38;5.20;;;20.30;98.60;;;;;;4945775;29;20126;-75
2022/10/31 13:31:54;;;;;;;10.38;5.10;;;20.30;98.70;;;;;;4928807;29;20034;-75
2022/10/31 13:34:32;;;;;;;13.50;5.47;;;20.30;98.80;;;;;;4955812;29;20098;-75
2022/10/31 13:37:10;;;;;;;14.37;5.60;;;20.30;98.40;;;;;;4965268;29;20031;-75
2022/10/31 13:39:51;;;;;;;17.15;6.47;;;20.30;98.20;;;;;;4965418;29;20042;-75
2022/10/31 13:42:33;;;;;;;14.30;6.22;;;20.30;98.40;;;;;;4964474;29;20090;-75
2022/10/31 13:45:18;;;;;;;14.15;5.72;;;20.60;98.10;;;;;;4964565;29;20043;-75
2022/10/31 13:47:59;;;;;;;11.77;5.43;;;21.50;97.10;;;;;;4952512;28;20036;-74
2022/10/31 13:50:31;;;;;;;10.93;5.30;;;22.70;95.20;;;;;;4958094;28;20306;-75
2022/10/31 13:53:18;;;;;;;17.80;5.93;;;23.30;94.40;;;;;;4945468;29;20027;-75
2022/10/31 13:55:46;;;;;;;16.98;6.57;;;23.50;93.40;;;;;;4939306;29;20101;-74
2022/10/31 13:58:31;;;;;;;12.85;6.45;;;23.10;94.00;;;;;;4964016;29;20050;-75
2022/10/31 14:01:17;;;;;;;18.75;6.07;;;22.90;94.80;;;;;;4945352;29;20071;-75
2022/10/31 14:03:46;;;;;;;12.70;6.68;;;23.00;94.90;;;;;;4924572;29;20059;-75
2022/10/31 14:06:13;;;;;;;15.43;6.90;;;23.00;94.70;;;;;;4925503;29;20376;-75
2022/10/31 14:08:50;;;;;;;14.27;6.28;;;22.90;95.20;;;;;;4925829;29;20245;-75
2022/10/31 14:11:27;;;;;;;15.93;6.60;;;22.80;94.80;;;;;;4943366;29;20036;-75
2022/10/31 14:13:56;;;;;;;11.38;6.22;;;22.50;94.70;;;;;;4945022;29;20095;-75
2022/10/31 14:16:30;;;;;;;16.10;7.35;;;22.10;95.00;;;;;;4944347;29;20031;-74
2022/10/31 14:19:04;;;;;;;12.15;6.13;;;22.10;95.30;;;;;;4944753;29;20034;-74
2022/10/31 14:21:37;;;;;;;11.98;5.85;;;22.20;95.30;;;;;;4943757;29;20027;-74
2022/10/31 14:24:30;;;;;;;15.15;6.25;;;22.40;95.10;;;;;;4943490;29;20029;-75
2022/10/31 14:27:04;;;;;;;15.65;6.13;;;22.60;94.80;;;;;;4925640;29;20103;-74
2022/10/31 14:29:32;;;;;;;11.77;5.68;;;22.60;94.80;;;;;;4925429;29;20046;-77
2022/10/31 14:31:58;;;;;;;13.27;5.97;;;22.50;95.50;;;;;;4924201;29;20054;-74
2022/10/31 14:34:34;;;;;;;11.88;6.00;;;22.60;95.30;;;;;;4925029;29;20266;-74
2022/10/31 14:37:15;;;;;;;11.75;5.88;;;22.70;94.40;;;;;;4930928;29;20054;-75
2022/10/31 14:40:03;;;;;;;11.90;5.53;;;22.30;94.80;;;;;;4944426;29;20034;-74
2022/10/31 14:42:51;;;;;;;13.57;6.15;;;22.00;95.20;;;;;;4944359;29;20352;-74
2022/10/31 14:45:24;;;;;;;10.93;5.55;;;21.70;95.80;;;;;;4944030;29;20023;-74
2022/10/31 14:48:15;;;;;;;11.43;5.70;;;21.40;96.00;;;;;;4932667;29;20095;-74
2022/10/31 14:50:52;;;;;;;12.00;6.40;;;21.10;96.30;;;;;;4944629;29;20061;-75
2022/10/31 14:53:25;;;;;;;13.88;6.20;;;20.90;97.00;;;;;;4944163;29;20031;-75
2022/10/31 14:55:54;;;;;;;10.85;6.32;;;20.70;97.30;;;;;;4944202;29;20107;-78
2022/10/31 14:58:31;;;;;;;12.32;6.53;;;20.60;97.50;;;;;;4943976;29;20344;-75
2022/10/31 15:00:57;;;;;;;12.17;5.90;;;20.50;98.60;;;;;;4936495;29;20044;-75
2022/10/31 15:03:39;;;;;;;11.30;5.93;;;20.40;98.00;;;;;;4938010;29;20059;-75
2022/10/31 15:06:14;;;;;;;14.77;6.78;;;20.40;98.20;;;;;;4944272;29;20074;-75
2022/10/31 15:08:45;;;;;;;12.70;6.18;;;20.30;98.50;;;;;;4944287;29;20032;-76
2022/10/31 15:11:16;;;;;;;13.90;6.97;;;20.30;98.50;;;;;;4961342;29;20031;-76
2022/10/31 15:13:53;;;;;;;19.23;8.57;;;20.40;99.70;;;;;;4942157;29;20047;-76
2022/10/31 15:16:25;;;;;;;33.00;12.75;;;20.40;99.30;;;;;;4943628;29;20078;-73
2022/10/31 15:19:02;;;;;;;24.02;10.50;;;20.40;99.20;;;;;;4943847;29;20039;-75
2022/10/31 15:21:29;;;;;;;20.25;10.20;;;20.30;99.40;;;;;;4944126;29;20035;-75
2022/10/31 15:23:57;;;;;;;16.77;8.80;;;20.10;99.90;;;;;;4952604;28;20027;-74
2022/10/31 15:26:27;;;;;;;18.70;8.95;;;19.90;99.90;;;;;;4959134;29;20041;-75
2022/10/31 15:29:02;;;;;;;23.50;10.13;;;19.70;99.90;;;;;;4956335;28;20087;-75
2022/10/31 15:31:28;;;;;;;20.02;10.57;;;19.40;99.90;;;;;;4943198;29;20032;-75
2022/10/31 15:33:57;;;;;;;18.98;9.35;;;19.10;99.90;;;;;;4943533;29;20035;-77
2022/10/31 15:36:26;;;;;;;20.50;9.45;;;18.90;99.90;;;;;;4943187;29;20301;-75
2022/10/31 15:38:52;;;;;;;23.27;11.85;;;18.60;99.90;;;;;;4943794;29;20043;-75
2022/10/31 15:41:30;;;;;;;20.95;11.65;;;18.40;99.90;;;;;;4926299;29;20087;-75
2022/10/31 15:44:02;;;;;;;23.25;11.77;;;18.20;99.90;;;;;;4949967;29;20031;-75
2022/10/31 15:46:29;;;;;;;26.52;12.73;;;18.00;99.90;;;;;;4943719;28;20047;-75
2022/10/31 15:48:55;;;;;;;17.58;9.65;;;17.90;99.90;;;;;;4948227;28;20038;-75
2022/10/31 15:51:30;;;;;;;17.80;8.70;;;17.70;99.90;;;;;;4952163;29;20030;-75
2022/10/31 15:53:56;;;;;;;18.38;8.00;;;17.50;99.90;;;;;;4943847;29;20028;-75
2022/10/31 15:56:31;;;;;;;16.65;8.73;;;17.30;99.90;;;;;;4958937;29;20035;-75
2022/10/31 15:58:59;;;;;;;18.80;10.93;;;17.20;99.90;;;;;;4962786;29;20094;-75
2022/10/31 16:01:30;;;;;;;18.55;9.30;;;17.10;99.90;;;;;;4962096;29;20038;-75
2022/10/31 16:04:09;;;;;;;14.68;7.50;;;17.00;99.90;;;;;;4962817;29;20117;-77
2022/10/31 16:06:35;;;;;;;16.55;7.57;;;16.90;99.90;;;;;;4961996;29;20341;-75
2022/10/31 16:09:03;;;;;;;14.25;7.32;;;16.80;99.90;;;;;;4962820;29;20039;-75
2022/10/31 16:11:37;;;;;;;17.85;9.10;;;16.70;99.90;;;;;;4942532;29;20055;-75
2022/10/31 16:14:09;;;;;;;17.08;8.52;;;16.60;99.90;;;;;;4942946;29;20377;-74
2022/10/31 16:16:42;;;;;;;13.73;6.95;;;16.60;99.90;;;;;;4942550;29;20392;-75
2022/10/31 16:19:23;;;;;;;16.92;8.55;;;16.40;99.90;;;;;;4943064;29;20032;-74
2022/10/31 16:22:11;;;;;;;16.25;8.48;;;16.20;99.90;;;;;;4943552;29;20032;-75
2022/10/31 16:24:52;;;;;;;14.68;8.75;;;16.10;99.90;;;;;;4936278;29;20106;-74
2022/10/31 16:27:30;;;;;;;15.85;8.65;;;16.00;99.90;;;;;;4942480;29;20050;-74
2022/10/31 16:29:57;;;;;;;22.30;10.25;;;15.80;99.90;;;;;;4943170;29;20036;-75
2022/10/31 16:32:34;;;;;;;22.55;12.43;;;15.70;99.90;;;;;;4942357;29;20151;-75
2022/10/31 16:35:07;;;;;;;20.35;9.35;;;15.60;99.90;;;;;;4942691;29;20309;-74
2022/10/31 16:37:33;;;;;;;17.60;9.05;;;15.40;99.90;;;;;;4942221;29;20042;-76
2022/10/31 16:39:58;;;;;;;17.35;9.45;;;15.30;99.90;;;;;;4942528;29;20031;-75
2022/10/31 16:42:24;;;;;;;16.75;9.32;;;15.20;99.90;;;;;;4945397;29;20102;-75
2022/10/31 16:44:50;;;;;;;19.38;9.02;;;15.10;99.90;;;;;;4943561;28;20289;-75
2022/10/31 16:47:17;;;;;;;22.15;12.15;;;15.00;99.90;;;;;;4947153;28;20040;-74
2022/10/31 16:49:46;;;;;;;22.05;13.60;;;15.00;99.90;;;;;;4956901;28;20250;-75
2022/10/31 16:52:12;;;;;;;20.42;13.13;;;14.90;99.90;;;;;;4948188;28;20036;-74
2022/10/31 16:54:38;;;;;;;28.30;13.63;;;14.80;99.90;;;;;;4946043;29;20044;-74
2022/10/31 16:57:06;;;;;;;25.90;15.02;;;14.80;99.90;;;;;;4964945;28;20083;-74
2022/10/31 16:59:35;;;;;;;28.83;15.93;;;14.70;99.90;;;;;;4964179;28;20062;-74
2022/10/31 17:02:03;;;;;;;39.72;23.17;;;14.70;99.90;;;;;;4967083;28;20043;-74
2022/10/31 17:04:29;;;;;;;28.90;18.87;;;14.60;99.90;;;;;;4983618;28;20102;-74
2022/10/31 17:06:54;;;;;;;26.83;17.20;;;14.50;99.90;;;;;;4984050;28;20090;-75
2022/10/31 17:09:20;;;;;;;29.38;17.05;;;14.40;99.90;;;;;;4980858;28;20325;-76
2022/10/31 17:11:50;;;;;;;35.00;19.30;;;14.40;99.90;;;;;;4965123;28;20027;-75
2022/10/31 17:14:17;;;;;;;30.80;17.48;;;14.40;99.90;;;;;;4964870;28;20063;-75
2022/10/31 17:17:00;;;;;;;28.17;13.80;;;14.30;99.90;;;;;;4964175;28;20328;-75
2022/10/31 17:19:27;;;;;;;25.33;13.52;;;14.30;99.90;;;;;;4964228;28;20031;-74
2022/10/31 17:21:52;;;;;;;22.30;12.95;;;14.30;99.90;;;;;;4964626;28;20103;-75
2022/10/31 17:24:18;;;;;;;22.50;12.07;;;14.30;99.90;;;;;;4967141;28;20031;-74
2022/10/31 17:26:44;;;;;;;22.73;11.70;;;14.20;99.90;;;;;;4964252;28;20047;-75
2022/10/31 17:29:09;;;;;;;20.83;11.63;;;14.20;99.90;;;;;;4947607;29;20067;-75
2022/10/31 17:31:37;;;;;;;21.83;11.30;;;14.10;99.90;;;;;;4977871;28;20039;-74
2022/10/31 17:34:05;;;;;;;22.55;11.60;;;14.00;99.90;;;;;;4983316;28;20047;-75
2022/10/31 17:36:35;;;;;;;23.40;12.50;;;14.00;99.90;;;;;;4982999;28;20058;-74
2022/10/31 17:39:08;;;;;;;29.23;12.35;;;13.90;99.90;;;;;;4983368;28;20054;-74
2022/10/31 17:41:34;;;;;;;22.98;12.68;;;13.90;99.90;;;;;;4970950;28;20073;-74
2022/10/31 17:44:00;;;;;;;25.85;12.30;;;13.90;99.90;;;;;;4984126;28;20025;-74
2022/10/31 17:46:27;;;;;;;22.20;13.00;;;13.80;99.90;;;;;;4965306;28;20058;-75
2022/10/31 17:48:56;;;;;;;23.73;11.88;;;13.80;99.90;;;;;;4970948;28;20317;-75
2022/10/31 17:51:22;;;;;;;22.55;11.68;;;13.70;99.90;;;;;;4980428;28;20039;-73
2022/10/31 17:53:48;;;;;;;26.45;12.93;;;13.60;99.90;;;;;;4966013;28;20082;-71
2022/10/31 17:56:13;;;;;;;22.40;13.10;;;13.60;99.90;;;;;;4978634;28;20046;-75
2022/10/31 17:58:39;;;;;;;27.15;14.60;;;13.50;99.90;;;;;;4982532;28;20018;-72
2022/10/31 18:01:10;;;;;;;26.25;13.80;;;13.40;99.90;;;;;;4982915;28;20045;-74
2022/10/31 18:03:36;;;;;;;22.73;13.52;;;13.40;99.90;;;;;;4966223;28;20116;-71
2022/10/31 18:06:01;;;;;;;21.00;12.60;;;13.30;99.90;;;;;;4977235;28;20158;-73
2022/10/31 18:08:29;;;;;;;22.90;13.18;;;13.30;99.90;;;;;;4983018;28;20039;-72
2022/10/31 18:10:58;;;;;;;23.48;13.23;;;13.30;99.90;;;;;;4967666;28;20030;-72
2022/10/31 18:13:25;;;;;;;26.35;14.48;;;13.20;99.90;;;;;;4965513;28;20035;-71
2022/10/31 18:15:51;;;;;;;25.08;15.45;;;13.10;99.90;;;;;;4964154;28;20347;-71
2022/10/31 18:18:17;;;;;;;22.65;14.65;;;13.10;99.90;;;;;;4963518;28;20035;-72
2022/10/31 18:20:43;;;;;;;25.00;14.43;;;13.10;99.90;;;;;;4963087;28;20046;-72
2022/10/31 18:23:09;;;;;;;26.02;15.00;;;13.00;99.90;;;;;;4965761;28;20262;-72
2022/10/31 18:25:37;;;;;;;24.17;14.23;;;13.00;99.90;;;;;;4963329;28;20019;-71
2022/10/31 18:28:04;;;;;;;;;;;13.00;99.90;;;;;;4979102;28;20609;-71
2022/10/31 18:30:29;;;;;;;23.40;14.80;;;12.90;99.90;;;;;;4982433;28;19928;-71
2022/10/31 18:32:55;;;;;;;27.92;14.68;;;12.90;99.90;;;;;;4982660;28;20305;-74
2022/10/31 18:35:21;;;;;;;27.25;16.65;;;12.90;99.90;;;;;;4982958;28;20056;-72
2022/10/31 18:37:47;;;;;;;26.60;14.75;;;12.90;99.90;;;;;;4982484;28;20034;-73
2022/10/31 18:40:13;;;;;;;24.85;14.63;;;12.90;99.90;;;;;;4982528;28;20288;-73
2022/10/31 18:42:38;;;;;;;32.40;15.30;;;12.90;99.90;;;;;;4982431;28;20356;-73
2022/10/31 18:45:05;;;;;;;29.20;15.40;;;12.90;99.90;;;;;;4982597;28;20027;-73
2022/10/31 18:47:30;;;;;;;25.58;16.02;;;12.90;99.90;;;;;;4972629;28;20034;-72
2022/10/31 18:49:56;;;;;;;25.17;14.25;;;12.90;99.90;;;;;;4976291;28;20241;-72
2022/10/31 18:52:22;;;;;;;23.13;11.10;;;13.00;99.90;;;;;;4963958;28;20039;-73
2022/10/31 18:54:47;;;;;;;22.02;12.68;;;13.10;99.90;;;;;;4966301;28;20027;-74
2022/10/31 18:57:13;;;;;;;21.33;12.00;;;13.10;99.90;;;;;;4982361;28;20046;-74
2022/10/31 18:59:38;;;;;;;21.63;10.38;;;13.10;99.90;;;;;;4964894;28;20209;-73
2022/10/31 19:02:04;;;;;;;22.15;10.93;;;13.10;99.90;;;;;;4981788;28;20047;-73
2022/10/31 19:04:30;;;;;;;22.30;13.00;;;13.10;99.90;;;;;;4981156;28;20094;-73
2022/10/31 19:06:56;;;;;;;20.88;10.98;;;13.10;99.90;;;;;;4981810;28;20093;-73
2022/10/31 19:09:23;;;;;;;24.58;11.82;;;13.10;99.90;;;;;;4975992;28;20273;-75
2022/10/31 19:11:49;;;;;;;20.23;11.88;;;13.10;99.90;;;;;;4962089;28;20030;-73
2022/10/31 19:14:14;;;;;;;17.10;9.52;;;13.10;99.90;;;;;;4962548;28;20319;-73
2022/10/31 19:16:40;;;;;;;18.65;9.98;;;13.10;99.90;;;;;;4961838;28;20352;-73